UUDDURMM

Guest
Details From UUDD - Moscou Domodedovo
To URMM - Mineralnyye Vody
Flight Number -
Tags Generated
Created
Modified
Stats Distance 702 nm / 1,299 km
Max Altitude 0 ft / 0 m
Waypoints 5
Social Downloads 4
Likes 0
Share VATSIM

Download

Looking for another format? Having issues loading an existing format? Contact us
Advertisement - Login to hide

Notes

Generated

Route

UUDD USMAN RYBAK MD URMM

ID Type Via Altitude Latitude Longitude Leg Dist Tot Dist Heading (true) Name
O UUDD APT - 0 ft / 0 m 55.42000˚ 37.88000˚ - 0 nm - -
USMAN FIX - 0 ft / 0 m 52.03333˚ 39.73333˚ 213 nm 213 nm 161° / 163° -
RYBAK FIX - 0 ft / 0 m 47.65000˚ 41.50000˚ 271 nm 485 nm 165° / 166° -
MD NDB - 0 ft / 0 m 44.25833˚ 43.00833˚ 213 nm 698 nm 162° / 163° MINERALNYYE VODY NDB
O URMM APT - 0 ft / 0 m 44.23442˚ 43.06126˚ 2 nm 701 nm 122° / 122° -

Altitude Profile

Advertisement - Login to hide

Weather


0- 5 10 15 20 25 30 35+ Temperature / ° C

Clouds and Precipitation
Forecast for 2018-05-25 00:00 UTC. Updated 2 hours ago

Ground ~20,000 ft ~40,000 ft Winds

UUDD

Details ICAO UUDD (DME)
Name Moscou Domodedovo
Region Russia
Timezone Europe/Moscow (UTC+3.0)
Stats Elevation 588 ft / 179 m (AMSL)
Location 55.409191° 37.901432°
Runways 3
Magnetic Variation 11.080° E

METAR

UUDD 250100Z 03005MPS CAVOK 13/10 Q1023 R32L/010095 NOSIG

Decode

TAF

TAF UUDD 242301Z 2500/2606 03006MPS 9999 SCT030 TX20/2512Z TN10/2501Z TEMPO 2505/2515 03007G13MPS BECMG 2600/2602 VRB01MPS

Decode

Departure Runways

ID Width Length Bearing (true) Bearing (mag) Surface Threshold Offset Overrun Length
14C 148 ft / 45 m 8,754 ft / 2,668 m 146.47° 135.39° Concrete 0 ft / 0 m 0 ft / 0 m
14L 174 ft / 53 m 12,382 ft / 3,774 m 145.59° 134.51° Concrete 0 ft / 0 m 0 ft / 0 m
14R 230 ft / 70 m 11,395 ft / 3,473 m 145.45° 134.37° Concrete 0 ft / 0 m 0 ft / 0 m
32C 148 ft / 45 m 8,754 ft / 2,668 m 326.49° 315.41° Concrete 0 ft / 0 m 0 ft / 0 m
32L 230 ft / 70 m 11,395 ft / 3,473 m 325.48° 314.40° Concrete 0 ft / 0 m 0 ft / 0 m
32R 174 ft / 53 m 12,382 ft / 3,774 m 325.61° 314.53° Concrete 0 ft / 0 m 0 ft / 0 m

URMM

Details ICAO URMM (MRV)
Name MINERALNYYE VODY
Region Russia
Timezone Europe/Moscow (UTC+3.0)
Stats Elevation 1,054 ft / 321 m (AMSL)
Location 44.225073° 43.081891°
Runways 1
Magnetic Variation 7.425° E

METAR

URMM 250100Z 32004MPS 6000 NSC 15/14 Q1011 R30/290250 TEMPO 0300 FG BKN002 BKN020CB RMK QFE730/0974

Decode

TAF

TAF URMM 242258Z 2500/2524 28003G08MPS 9999 BKN030 TX26/2512Z TN15/2502Z TEMPO 2500/2506 3100 -SHRA BR BKN011 BKN020CB BECMG 2506/2507 06003G08MPS

Decode

Destination Runways

ID Width Length Bearing (true) Bearing (mag) Surface Threshold Offset Overrun Length
12 197 ft / 60 m 12,766 ft / 3,891 m 122.28° 114.85° Concrete 0 ft / 0 m 240 ft / 73 m
30 197 ft / 60 m 12,766 ft / 3,891 m 302.31° 294.88° Concrete 0 ft / 0 m 250 ft / 76 m

Popular Alternatives